sensor_id;sensor_type;location;lat;lon;timestamp;pressure;altitude;pressure_sealevel;temperature;humidity
47082;BME280;33066;49.296;14.470;2023-05-08T00:01:36;97552.80;;;17.72;31.03
47082;BME280;33066;49.296;14.470;2023-05-08T00:04:03;97554.28;;;18.03;30.99
47082;BME280;33066;49.296;14.470;2023-05-08T00:06:26;97557.36;;;17.83;30.84
47082;BME280;33066;49.296;14.470;2023-05-08T00:08:52;97556.00;;;17.82;30.89
47082;BME280;33066;49.296;14.470;2023-05-08T00:11:17;97558.40;;;17.78;30.67
47082;BME280;33066;49.296;14.470;2023-05-08T00:13:43;97560.61;;;17.73;30.69
47082;BME280;33066;49.296;14.470;2023-05-08T00:16:10;97560.52;;;17.77;30.67
47082;BME280;33066;49.296;14.470;2023-05-08T00:18:33;97563.66;;;17.71;30.68
47082;BME280;33066;49.296;14.470;2023-05-08T00:20:59;97560.03;;;17.63;30.63
47082;BME280;33066;49.296;14.470;2023-05-08T00:23:26;97558.90;;;17.73;30.83
47082;BME280;33066;49.296;14.470;2023-05-08T00:25:50;97554.95;;;17.49;30.75
47082;BME280;33066;49.296;14.470;2023-05-08T00:28:15;97556.74;;;17.96;30.91
47082;BME280;33066;49.296;14.470;2023-05-08T00:30:40;97555.65;;;17.67;30.96
47082;BME280;33066;49.296;14.470;2023-05-08T00:33:06;97554.41;;;17.67;30.90
47082;BME280;33066;49.296;14.470;2023-05-08T00:35:31;97554.32;;;17.61;30.71
47082;BME280;33066;49.296;14.470;2023-05-08T00:37:57;97554.36;;;17.43;30.70
47082;BME280;33066;49.296;14.470;2023-05-08T00:40:22;97553.52;;;17.45;30.63
47082;BME280;33066;49.296;14.470;2023-05-08T00:42:47;97554.20;;;17.36;30.87
47082;BME280;33066;49.296;14.470;2023-05-08T00:45:14;97556.01;;;17.88;30.78
47082;BME280;33066;49.296;14.470;2023-05-08T00:47:38;97554.58;;;17.64;30.71
47082;BME280;33066;49.296;14.470;2023-05-08T00:50:04;97553.60;;;17.65;30.49
47082;BME280;33066;49.296;14.470;2023-05-08T00:52:31;97553.99;;;17.41;30.86
47082;BME280;33066;49.296;14.470;2023-05-08T00:54:54;97553.59;;;17.41;30.82
47082;BME280;33066;49.296;14.470;2023-05-08T00:57:20;97554.34;;;17.50;30.81
47082;BME280;33066;49.296;14.470;2023-05-08T00:59:45;97553.74;;;17.71;30.75
47082;BME280;33066;49.296;14.470;2023-05-08T01:02:10;97555.79;;;17.06;30.80
47082;BME280;33066;49.296;14.470;2023-05-08T01:04:36;97556.86;;;17.12;31.26
47082;BME280;33066;49.296;14.470;2023-05-08T01:07:03;97558.59;;;17.16;31.15
47082;BME280;33066;49.296;14.470;2023-05-08T01:09:27;97558.59;;;17.47;30.90
47082;BME280;33066;49.296;14.470;2023-05-08T01:12:02;97563.34;;;17.01;30.84
47082;BME280;33066;49.296;14.470;2023-05-08T01:14:20;97565.06;;;17.51;30.85
47082;BME280;33066;49.296;14.470;2023-05-08T01:16:49;97565.29;;;17.27;30.91
47082;BME280;33066;49.296;14.470;2023-05-08T01:21:40;97567.99;;;17.36;31.03
47082;BME280;33066;49.296;14.470;2023-05-08T01:24:18;97569.94;;;16.96;31.31
47082;BME280;33066;49.296;14.470;2023-05-08T01:26:46;97571.84;;;17.12;31.04
47082;BME280;33066;49.296;14.470;2023-05-08T01:31:24;97576.23;;;17.31;30.89
47082;BME280;33066;49.296;14.470;2023-05-08T01:33:46;97575.23;;;17.05;30.95
47082;BME280;33066;49.296;14.470;2023-05-08T01:36:16;97574.32;;;17.24;30.93
47082;BME280;33066;49.296;14.470;2023-05-08T01:38:33;97576.94;;;17.20;30.73
47082;BME280;33066;49.296;14.470;2023-05-08T01:41:02;97576.69;;;17.17;30.95
47082;BME280;33066;49.296;14.470;2023-05-08T01:43:28;97581.53;;;16.52;31.03
47082;BME280;33066;49.296;14.470;2023-05-08T01:45:50;97585.32;;;17.17;31.04
47082;BME280;33066;49.296;14.470;2023-05-08T01:48:17;97591.16;;;16.90;31.06
47082;BME280;33066;49.296;14.470;2023-05-08T01:50:44;97593.27;;;16.89;31.01
47082;BME280;33066;49.296;14.470;2023-05-08T01:53:09;97590.83;;;16.85;30.99
47082;BME280;33066;49.296;14.470;2023-05-08T01:55:32;97586.01;;;16.91;30.98
47082;BME280;33066;49.296;14.470;2023-05-08T01:57:57;97587.44;;;16.71;30.91
47082;BME280;33066;49.296;14.470;2023-05-08T02:00:21;97592.44;;;16.76;31.03
47082;BME280;33066;49.296;14.470;2023-05-08T02:02:45;97589.98;;;16.64;31.13
47082;BME280;33066;49.296;14.470;2023-05-08T02:05:11;97592.60;;;16.82;31.17
47082;BME280;33066;49.296;14.470;2023-05-08T02:07:35;97592.94;;;16.55;31.39
47082;BME280;33066;49.296;14.470;2023-05-08T02:10:01;97594.84;;;16.61;31.34
47082;BME280;33066;49.296;14.470;2023-05-08T02:12:27;97595.91;;;16.88;31.15
47082;BME280;33066;49.296;14.470;2023-05-08T02:14:52;97595.79;;;16.71;30.96
47082;BME280;33066;49.296;14.470;2023-05-08T02:17:17;97593.89;;;16.68;30.93
47082;BME280;33066;49.296;14.470;2023-05-08T02:19:46;97592.16;;;16.89;30.99
47082;BME280;33066;49.296;14.470;2023-05-08T02:22:09;97591.91;;;16.60;30.80
47082;BME280;33066;49.296;14.470;2023-05-08T02:24:34;97595.57;;;16.70;30.76
47082;BME280;33066;49.296;14.470;2023-05-08T02:27:00;97597.48;;;16.90;30.92
47082;BME280;33066;49.296;14.470;2023-05-08T02:29:25;97598.46;;;16.69;31.00
47082;BME280;33066;49.296;14.470;2023-05-08T02:31:51;97599.81;;;16.48;30.80
47082;BME280;33066;49.296;14.470;2023-05-08T02:34:16;97600.71;;;16.51;30.71
47082;BME280;33066;49.296;14.470;2023-05-08T02:36:41;97599.92;;;16.72;30.62
47082;BME280;33066;49.296;14.470;2023-05-08T02:39:11;97597.25;;;16.56;30.62
47082;BME280;33066;49.296;14.470;2023-05-08T02:41:33;97597.11;;;16.56;30.33
47082;BME280;33066;49.296;14.470;2023-05-08T02:43:57;97596.21;;;16.59;30.48
47082;BME280;33066;49.296;14.470;2023-05-08T02:46:28;97594.89;;;16.54;30.41
47082;BME280;33066;49.296;14.470;2023-05-08T02:48:55;97597.01;;;16.49;30.47
47082;BME280;33066;49.296;14.470;2023-05-08T02:51:19;97599.24;;;16.43;30.43
47082;BME280;33066;49.296;14.470;2023-05-08T02:53:45;97599.81;;;16.71;30.67
47082;BME280;33066;49.296;14.470;2023-05-08T02:56:09;97602.84;;;16.51;30.48
47082;BME280;33066;49.296;14.470;2023-05-08T02:58:35;97603.34;;;16.51;30.49
47082;BME280;33066;49.296;14.470;2023-05-08T03:00:57;97606.39;;;16.55;30.60
47082;BME280;33066;49.296;14.470;2023-05-08T03:03:24;97609.43;;;16.76;30.74
47082;BME280;33066;49.296;14.470;2023-05-08T03:05:51;97608.50;;;16.54;31.30
47082;BME280;33066;49.296;14.470;2023-05-08T03:08:17;97607.95;;;16.55;30.97
47082;BME280;33066;49.296;14.470;2023-05-08T03:13:03;97613.53;;;16.92;31.05
47082;BME280;33066;49.296;14.470;2023-05-08T03:15:30;97617.24;;;16.80;30.91
47082;BME280;33066;49.296;14.470;2023-05-08T03:17:56;97613.18;;;16.75;31.39
47082;BME280;33066;49.296;14.470;2023-05-08T03:20:17;97611.02;;;16.88;31.39
47082;BME280;33066;49.296;14.470;2023-05-08T03:22:43;97611.86;;;16.53;31.76
47082;BME280;33066;49.296;14.470;2023-05-08T03:25:09;97609.22;;;16.47;31.62
47082;BME280;33066;49.296;14.470;2023-05-08T03:27:34;97612.21;;;16.67;31.21
47082;BME280;33066;49.296;14.470;2023-05-08T03:29:58;97608.25;;;16.66;31.17
47082;BME280;33066;49.296;14.470;2023-05-08T03:32:23;97610.29;;;16.54;31.38
47082;BME280;33066;49.296;14.470;2023-05-08T03:34:48;97613.59;;;16.36;31.51
47082;BME280;33066;49.296;14.470;2023-05-08T03:37:13;97615.84;;;16.56;31.45
47082;BME280;33066;49.296;14.470;2023-05-08T03:39:38;97619.61;;;16.49;31.48
47082;BME280;33066;49.296;14.470;2023-05-08T03:42:04;97618.42;;;16.47;31.48
47082;BME280;33066;49.296;14.470;2023-05-08T03:44:30;97618.73;;;16.56;31.63
47082;BME280;33066;49.296;14.470;2023-05-08T03:46:56;97620.75;;;16.32;31.23
47082;BME280;33066;49.296;14.470;2023-05-08T03:49:22;97623.59;;;16.57;30.92
47082;BME280;33066;49.296;14.470;2023-05-08T03:51:47;97622.85;;;16.61;31.39
47082;BME280;33066;49.296;14.470;2023-05-08T03:54:12;97625.12;;;16.62;31.05
47082;BME280;33066;49.296;14.470;2023-05-08T03:56:38;97623.08;;;16.48;31.28
47082;BME280;33066;49.296;14.470;2023-05-08T03:59:10;97621.85;;;16.71;30.96
47082;BME280;33066;49.296;14.470;2023-05-08T04:01:37;97618.84;;;16.46;30.93
47082;BME280;33066;49.296;14.470;2023-05-08T04:04:02;97620.35;;;16.62;30.73
47082;BME280;33066;49.296;14.470;2023-05-08T04:06:28;97623.49;;;16.54;30.84
47082;BME280;33066;49.296;14.470;2023-05-08T04:08:49;97627.39;;;16.51;30.99
47082;BME280;33066;49.296;14.470;2023-05-08T04:11:18;97630.71;;;16.44;31.07
47082;BME280;33066;49.296;14.470;2023-05-08T04:13:44;97636.91;;;16.59;31.19
47082;BME280;33066;49.296;14.470;2023-05-08T04:16:08;97636.55;;;16.28;31.18
47082;BME280;33066;49.296;14.470;2023-05-08T04:18:29;97634.06;;;16.30;31.38
47082;BME280;33066;49.296;14.470;2023-05-08T04:20:55;97633.16;;;16.56;31.26
47082;BME280;33066;49.296;14.470;2023-05-08T04:23:20;97630.29;;;16.34;31.24
47082;BME280;33066;49.296;14.470;2023-05-08T04:25:47;97632.39;;;16.64;31.05
47082;BME280;33066;49.296;14.470;2023-05-08T04:28:11;97636.20;;;16.20;31.03
47082;BME280;33066;49.296;14.470;2023-05-08T04:30:36;97641.29;;;16.76;30.77
47082;BME280;33066;49.296;14.470;2023-05-08T04:33:02;97643.46;;;16.77;30.70
47082;BME280;33066;49.296;14.470;2023-05-08T04:35:27;97646.29;;;16.58;30.69
47082;BME280;33066;49.296;14.470;2023-05-08T04:37:52;97648.66;;;16.84;30.68
47082;BME280;33066;49.296;14.470;2023-05-08T04:40:18;97654.86;;;16.36;30.76
47082;BME280;33066;49.296;14.470;2023-05-08T04:42:43;97657.78;;;16.33;30.66
47082;BME280;33066;49.296;14.470;2023-05-08T04:45:09;97661.66;;;16.30;30.67
47082;BME280;33066;49.296;14.470;2023-05-08T04:47:34;97663.26;;;16.49;30.74
47082;BME280;33066;49.296;14.470;2023-05-08T04:50:00;97668.58;;;16.46;30.68
47082;BME280;33066;49.296;14.470;2023-05-08T04:52:25;97678.04;;;16.49;30.65
47082;BME280;33066;49.296;14.470;2023-05-08T04:54:51;97675.85;;;16.20;30.77
47082;BME280;33066;49.296;14.470;2023-05-08T04:57:16;97674.81;;;16.42;30.88
47082;BME280;33066;49.296;14.470;2023-05-08T04:59:42;97672.62;;;16.47;31.01
47082;BME280;33066;49.296;14.470;2023-05-08T05:02:07;97674.85;;;16.75;31.24
47082;BME280;33066;49.296;14.470;2023-05-08T05:04:34;97679.31;;;16.34;31.77
47082;BME280;33066;49.296;14.470;2023-05-08T05:06:59;97675.77;;;16.55;31.73
47082;BME280;33066;49.296;14.470;2023-05-08T05:09:24;97679.68;;;16.75;31.76
47082;BME280;33066;49.296;14.470;2023-05-08T05:11:50;97680.88;;;16.32;31.53
47082;BME280;33066;49.296;14.470;2023-05-08T05:14:16;97684.32;;;16.84;31.30
47082;BME280;33066;49.296;14.470;2023-05-08T05:16:43;97683.02;;;16.97;31.21
47082;BME280;33066;49.296;14.470;2023-05-08T05:19:06;97681.35;;;16.77;31.00
47082;BME280;33066;49.296;14.470;2023-05-08T05:21:32;97685.02;;;16.69;31.21
47082;BME280;33066;49.296;14.470;2023-05-08T05:23:57;97684.88;;;16.72;31.21
47082;BME280;33066;49.296;14.470;2023-05-08T05:26:22;97682.08;;;16.64;31.13
47082;BME280;33066;49.296;14.470;2023-05-08T05:28:48;97684.83;;;16.86;31.27
47082;BME280;33066;49.296;14.470;2023-05-08T05:31:13;97682.65;;;16.46;31.42
47082;BME280;33066;49.296;14.470;2023-05-08T05:33:38;97682.51;;;16.66;31.16
47082;BME280;33066;49.296;14.470;2023-05-08T05:36:05;97681.47;;;16.37;31.47
47082;BME280;33066;49.296;14.470;2023-05-08T05:38:31;97684.54;;;16.56;31.46
47082;BME280;33066;49.296;14.470;2023-05-08T05:40:56;97682.18;;;15.55;31.51
47082;BME280;33066;49.296;14.470;2023-05-08T05:43:20;97678.24;;;16.68;30.95
47082;BME280;33066;49.296;14.470;2023-05-08T05:45:46;97686.93;;;16.70;30.80
47082;BME280;33066;49.296;14.470;2023-05-08T05:48:12;97687.32;;;16.67;30.89
47082;BME280;33066;49.296;14.470;2023-05-08T05:50:38;97689.05;;;16.74;31.10
47082;BME280;33066;49.296;14.470;2023-05-08T05:53:02;97691.94;;;16.73;31.54
47082;BME280;33066;49.296;14.470;2023-05-08T05:55:27;97693.24;;;16.81;31.30
47082;BME280;33066;49.296;14.470;2023-05-08T05:57:53;97697.61;;;16.66;30.76
47082;BME280;33066;49.296;14.470;2023-05-08T06:00:19;97703.29;;;16.95;30.84
47082;BME280;33066;49.296;14.470;2023-05-08T06:02:44;97706.00;;;16.68;30.31
47082;BME280;33066;49.296;14.470;2023-05-08T06:05:10;97706.29;;;16.85;30.25
47082;BME280;33066;49.296;14.470;2023-05-08T06:07:34;97704.60;;;16.81;30.33
47082;BME280;33066;49.296;14.470;2023-05-08T06:10:00;97709.04;;;16.58;30.30
47082;BME280;33066;49.296;14.470;2023-05-08T06:12:26;97708.13;;;16.83;30.06
47082;BME280;33066;49.296;14.470;2023-05-08T06:14:51;97707.32;;;16.67;29.85
47082;BME280;33066;49.296;14.470;2023-05-08T06:17:16;97708.19;;;16.75;29.75
47082;BME280;33066;49.296;14.470;2023-05-08T06:19:41;97708.55;;;16.79;29.79
47082;BME280;33066;49.296;14.470;2023-05-08T06:22:12;97706.92;;;16.77;29.69
47082;BME280;33066;49.296;14.470;2023-05-08T06:24:32;97710.06;;;16.80;29.50
47082;BME280;33066;49.296;14.470;2023-05-08T06:26:58;97709.55;;;15.70;29.46
47082;BME280;33066;49.296;14.470;2023-05-08T06:29:24;97712.46;;;17.27;29.15
47082;BME280;33066;49.296;14.470;2023-05-08T06:31:50;97711.97;;;17.06;29.19
47082;BME280;33066;49.296;14.470;2023-05-08T06:34:15;97717.87;;;17.19;29.36
47082;BME280;33066;49.296;14.470;2023-05-08T06:36:40;97720.65;;;17.19;29.27
47082;BME280;33066;49.296;14.470;2023-05-08T06:39:06;97717.87;;;17.14;28.92
47082;BME280;33066;49.296;14.470;2023-05-08T06:41:31;97721.33;;;17.02;29.33
47082;BME280;33066;49.296;14.470;2023-05-08T06:43:56;97724.18;;;16.79;29.11
47082;BME280;33066;49.296;14.470;2023-05-08T06:46:21;97723.70;;;17.28;29.31
47082;BME280;33066;49.296;14.470;2023-05-08T06:48:47;97728.97;;;17.09;29.63
47082;BME280;33066;49.296;14.470;2023-05-08T06:51:12;97731.93;;;17.18;29.29
47082;BME280;33066;49.296;14.470;2023-05-08T06:53:38;97735.49;;;17.11;28.99
47082;BME280;33066;49.296;14.470;2023-05-08T06:56:03;97737.57;;;16.84;29.05
47082;BME280;33066;49.296;14.470;2023-05-08T06:58:28;97738.55;;;17.11;29.04
47082;BME280;33066;49.296;14.470;2023-05-08T07:00:54;97733.95;;;17.15;29.15
47082;BME280;33066;49.296;14.470;2023-05-08T07:03:19;97734.69;;;17.26;29.04
47082;BME280;33066;49.296;14.470;2023-05-08T07:05:44;97735.26;;;17.35;28.87
47082;BME280;33066;49.296;14.470;2023-05-08T07:08:10;97738.95;;;17.41;28.45
47082;BME280;33066;49.296;14.470;2023-05-08T07:10:35;97739.58;;;17.06;28.62
47082;BME280;33066;49.296;14.470;2023-05-08T07:13:01;97741.61;;;17.38;28.47
47082;BME280;33066;49.296;14.470;2023-05-08T07:15:27;97743.55;;;17.39;28.43
47082;BME280;33066;49.296;14.470;2023-05-08T07:17:52;97745.00;;;17.45;28.40
47082;BME280;33066;49.296;14.470;2023-05-08T07:20:17;97748.20;;;17.56;28.46
47082;BME280;33066;49.296;14.470;2023-05-08T07:22:44;97750.13;;;17.32;28.17
47082;BME280;33066;49.296;14.470;2023-05-08T07:25:09;97754.91;;;17.08;27.92
47082;BME280;33066;49.296;14.470;2023-05-08T07:27:34;97756.86;;;16.82;27.98
47082;BME280;33066;49.296;14.470;2023-05-08T07:30:00;97758.22;;;17.13;28.27
47082;BME280;33066;49.296;14.470;2023-05-08T07:32:25;97758.29;;;17.17;28.37
47082;BME280;33066;49.296;14.470;2023-05-08T07:34:50;97761.29;;;17.33;28.45
47082;BME280;33066;49.296;14.470;2023-05-08T07:37:15;97761.99;;;17.45;28.64
47082;BME280;33066;49.296;14.470;2023-05-08T07:39:42;97763.58;;;17.63;28.47
47082;BME280;33066;49.296;14.470;2023-05-08T07:42:06;97760.66;;;17.74;28.35
47082;BME280;33066;49.296;14.470;2023-05-08T07:44:32;97758.19;;;17.65;28.18
47082;BME280;33066;49.296;14.470;2023-05-08T07:46:57;97756.55;;;18.03;28.07
47082;BME280;33066;49.296;14.470;2023-05-08T07:49:22;97753.99;;;17.81;27.55
47082;BME280;33066;49.296;14.470;2023-05-08T07:51:48;97754.18;;;17.50;27.68
47082;BME280;33066;49.296;14.470;2023-05-08T07:54:13;97754.35;;;17.78;27.69
47082;BME280;33066;49.296;14.470;2023-05-08T07:56:39;97757.61;;;17.88;28.11
47082;BME280;33066;49.296;14.470;2023-05-08T07:59:04;97759.87;;;17.79;27.94
47082;BME280;33066;49.296;14.470;2023-05-08T08:01:30;97756.55;;;18.08;27.60
47082;BME280;33066;49.296;14.470;2023-05-08T08:03:55;97752.15;;;18.01;27.67
47082;BME280;33066;49.296;14.470;2023-05-08T08:06:21;97749.13;;;18.19;27.45
47082;BME280;33066;49.296;14.470;2023-05-08T08:08:46;97750.73;;;18.24;27.40
47082;BME280;33066;49.296;14.470;2023-05-08T08:11:12;97746.90;;;18.24;27.28
47082;BME280;33066;49.296;14.470;2023-05-08T08:13:38;97749.56;;;18.42;27.12
47082;BME280;33066;49.296;14.470;2023-05-08T08:16:03;97743.88;;;18.00;26.87
47082;BME280;33066;49.296;14.470;2023-05-08T08:18:28;97745.59;;;17.95;27.29
47082;BME280;33066;49.296;14.470;2023-05-08T08:20:53;97747.09;;;17.97;26.99
47082;BME280;33066;49.296;14.470;2023-05-08T08:23:19;97743.71;;;18.00;27.05
47082;BME280;33066;49.296;14.470;2023-05-08T08:25:44;97741.77;;;17.99;27.18
47082;BME280;33066;49.296;14.470;2023-05-08T08:28:09;97742.67;;;17.82;27.17
47082;BME280;33066;49.296;14.470;2023-05-08T08:30:36;97739.16;;;17.92;27.04
47082;BME280;33066;49.296;14.470;2023-05-08T08:33:00;97740.94;;;17.64;27.51
47082;BME280;33066;49.296;14.470;2023-05-08T08:35:26;97746.56;;;17.72;27.47
47082;BME280;33066;49.296;14.470;2023-05-08T08:37:51;97740.76;;;17.79;27.38
47082;BME280;33066;49.296;14.470;2023-05-08T08:40:18;97742.87;;;17.45;27.94
47082;BME280;33066;49.296;14.470;2023-05-08T08:42:43;97741.08;;;18.08;27.66
47082;BME280;33066;49.296;14.470;2023-05-08T08:45:09;97744.05;;;17.90;27.42
47082;BME280;33066;49.296;14.470;2023-05-08T08:47:35;97742.55;;;17.99;27.81
47082;BME280;33066;49.296;14.470;2023-05-08T08:50:03;97741.42;;;18.05;27.61
47082;BME280;33066;49.296;14.470;2023-05-08T08:52:30;97739.16;;;18.07;27.50
47082;BME280;33066;49.296;14.470;2023-05-08T08:54:50;97745.22;;;17.89;27.73
47082;BME280;33066;49.296;14.470;2023-05-08T08:57:18;97746.65;;;17.68;27.55
47082;BME280;33066;49.296;14.470;2023-05-08T08:59:41;97745.94;;;18.37;27.73
47082;BME280;33066;49.296;14.470;2023-05-08T09:02:10;97750.23;;;17.37;27.85
47082;BME280;33066;49.296;14.470;2023-05-08T09:04:31;97748.87;;;17.25;27.95
47082;BME280;33066;49.296;14.470;2023-05-08T09:06:57;97744.02;;;17.32;27.79
47082;BME280;33066;49.296;14.470;2023-05-08T09:09:24;97739.46;;;17.79;27.71
47082;BME280;33066;49.296;14.470;2023-05-08T09:11:51;97743.09;;;17.65;27.82
47082;BME280;33066;49.296;14.470;2023-05-08T09:14:14;97741.35;;;17.73;27.82
47082;BME280;33066;49.296;14.470;2023-05-08T09:16:41;97749.45;;;17.76;27.71
47082;BME280;33066;49.296;14.470;2023-05-08T09:19:06;97743.44;;;17.84;27.65
47082;BME280;33066;49.296;14.470;2023-05-08T09:21:31;97736.63;;;18.13;27.56
47082;BME280;33066;49.296;14.470;2023-05-08T09:23:57;97740.36;;;18.26;27.54
47082;BME280;33066;49.296;14.470;2023-05-08T09:26:27;97734.82;;;18.34;27.61
47082;BME280;33066;49.296;14.470;2023-05-08T09:28:47;97732.86;;;18.58;27.09
47082;BME280;33066;49.296;14.470;2023-05-08T09:31:12;97734.38;;;18.72;27.12
47082;BME280;33066;49.296;14.470;2023-05-08T09:33:43;97732.16;;;18.87;27.13
47082;BME280;33066;49.296;14.470;2023-05-08T09:36:03;97734.04;;;18.82;27.09
47082;BME280;33066;49.296;14.470;2023-05-08T09:38:35;97730.23;;;19.19;27.07
47082;BME280;33066;49.296;14.470;2023-05-08T09:41:06;97730.09;;;19.26;26.65
47082;BME280;33066;49.296;14.470;2023-05-08T09:43:20;97729.54;;;19.31;26.45
47082;BME280;33066;49.296;14.470;2023-05-08T09:45:45;97730.66;;;18.82;26.50
47082;BME280;33066;49.296;14.470;2023-05-08T09:48:10;97727.17;;;18.81;26.73
47082;BME280;33066;49.296;14.470;2023-05-08T09:50:37;97725.44;;;19.28;26.81
47082;BME280;33066;49.296;14.470;2023-05-08T09:53:02;97723.87;;;18.97;26.41
47082;BME280;33066;49.296;14.470;2023-05-08T09:55:26;97719.18;;;19.17;26.67
47082;BME280;33066;49.296;14.470;2023-05-08T09:57:54;97712.51;;;19.56;26.82
47082;BME280;33066;49.296;14.470;2023-05-08T10:00:19;97712.87;;;19.65;26.86
47082;BME280;33066;49.296;14.470;2023-05-08T10:02:54;97714.37;;;19.42;26.23
47082;BME280;33066;49.296;14.470;2023-05-08T10:07:35;97717.36;;;19.23;26.85
47082;BME280;33066;49.296;14.470;2023-05-08T10:10:01;97715.71;;;19.55;26.25
47082;BME280;33066;49.296;14.470;2023-05-08T10:12:26;97717.43;;;19.94;26.73
47082;BME280;33066;49.296;14.470;2023-05-08T10:14:50;97715.26;;;20.15;26.66
47082;BME280;33066;49.296;14.470;2023-05-08T10:17:25;97716.28;;;20.01;26.36
47082;BME280;33066;49.296;14.470;2023-05-08T10:19:44;97710.70;;;20.67;25.58
47082;BME280;33066;49.296;14.470;2023-05-08T10:22:10;97707.08;;;20.45;26.00
47082;BME280;33066;49.296;14.470;2023-05-08T10:24:33;97704.73;;;20.87;26.03
47082;BME280;33066;49.296;14.470;2023-05-08T10:27:03;97703.08;;;20.89;25.58
47082;BME280;33066;49.296;14.470;2023-05-08T10:29:32;97699.20;;;21.22;25.13
47082;BME280;33066;49.296;14.470;2023-05-08T10:31:49;97693.62;;;20.93;24.43
47082;BME280;33066;49.296;14.470;2023-05-08T10:34:18;97697.47;;;21.25;24.89
47082;BME280;33066;49.296;14.470;2023-05-08T10:36:40;97695.01;;;21.78;24.10
47082;BME280;33066;49.296;14.470;2023-05-08T10:39:05;97693.12;;;21.93;23.84
47082;BME280;33066;49.296;14.470;2023-05-08T10:41:30;97690.69;;;22.11;24.07
47082;BME280;33066;49.296;14.470;2023-05-08T10:43:56;97691.38;;;22.26;23.31
47082;BME280;33066;49.296;14.470;2023-05-08T10:46:28;97685.33;;;22.67;22.99
47082;BME280;33066;49.296;14.470;2023-05-08T10:48:53;97677.74;;;22.85;23.00
47082;BME280;33066;49.296;14.470;2023-05-08T10:51:18;97678.46;;;23.06;22.25
47082;BME280;33066;49.296;14.470;2023-05-08T10:53:43;97674.16;;;23.26;23.16
47082;BME280;33066;49.296;14.470;2023-05-08T10:56:03;97669.82;;;23.37;23.35
47082;BME280;33066;49.296;14.470;2023-05-08T10:58:29;97667.61;;;23.60;22.90
47082;BME280;33066;49.296;14.470;2023-05-08T11:01:11;97657.40;;;23.83;22.15
47082;BME280;33066;49.296;14.470;2023-05-08T11:03:21;97653.68;;;24.29;21.81
47082;BME280;33066;49.296;14.470;2023-05-08T11:05:45;97646.32;;;24.49;21.61
47082;BME280;33066;49.296;14.470;2023-05-08T11:08:16;97641.63;;;24.84;21.64
47082;BME280;33066;49.296;14.470;2023-05-08T11:10:36;97639.03;;;24.74;20.98
47082;BME280;33066;49.296;14.470;2023-05-08T11:13:00;97637.43;;;25.44;21.02
47082;BME280;33066;49.296;14.470;2023-05-08T11:15:34;97637.17;;;25.29;20.25
47082;BME280;33066;49.296;14.470;2023-05-08T11:17:54;97637.62;;;25.52;20.33
47082;BME280;33066;49.296;14.470;2023-05-08T11:20:22;97635.63;;;25.56;20.29
47082;BME280;33066;49.296;14.470;2023-05-08T11:22:47;97639.37;;;25.67;20.49
47082;BME280;33066;49.296;14.470;2023-05-08T11:25:09;97636.48;;;25.58;19.47
47082;BME280;33066;49.296;14.470;2023-05-08T11:27:37;97634.71;;;25.62;20.46
47082;BME280;33066;49.296;14.470;2023-05-08T11:32:21;97627.04;;;25.89;19.93
47082;BME280;33066;49.296;14.470;2023-05-08T11:34:48;97626.47;;;25.85;20.37
47082;BME280;33066;49.296;14.470;2023-05-08T11:37:18;97625.02;;;26.44;19.88
47082;BME280;33066;49.296;14.470;2023-05-08T11:39:38;97618.13;;;26.59;19.37
47082;BME280;33066;49.296;14.470;2023-05-08T11:44:28;97612.69;;;27.01;18.98
47082;BME280;33066;49.296;14.470;2023-05-08T11:46:55;97606.60;;;26.93;18.39
47082;BME280;33066;49.296;14.470;2023-05-08T11:49:20;97611.23;;;26.90;19.07
47082;BME280;33066;49.296;14.470;2023-05-08T11:51:47;97613.45;;;27.08;19.44
47082;BME280;33066;49.296;14.470;2023-05-08T11:54:14;97610.73;;;27.19;18.54
47082;BME280;33066;49.296;14.470;2023-05-08T11:56:37;97603.50;;;27.05;19.03
47082;BME280;33066;49.296;14.470;2023-05-08T11:59:03;97601.05;;;27.54;18.57
47082;BME280;33066;49.296;14.470;2023-05-08T12:01:30;97596.58;;;27.18;17.82
47082;BME280;33066;49.296;14.470;2023-05-08T12:03:59;97594.05;;;27.59;17.78
47082;BME280;33066;49.296;14.470;2023-05-08T12:06:20;97593.86;;;27.61;18.53
47082;BME280;33066;49.296;14.470;2023-05-08T12:08:46;97591.86;;;27.68;18.39
47082;BME280;33066;49.296;14.470;2023-05-08T12:13:38;97590.97;;;28.18;17.77
47082;BME280;33066;49.296;14.470;2023-05-08T12:16:03;97583.16;;;28.50;17.38
47082;BME280;33066;49.296;14.470;2023-05-08T12:18:28;97581.52;;;28.89;17.60
47082;BME280;33066;49.296;14.470;2023-05-08T12:20:56;97574.70;;;29.25;17.79
47082;BME280;33066;49.296;14.470;2023-05-08T12:23:20;97575.99;;;29.50;16.69
47082;BME280;33066;49.296;14.470;2023-05-08T12:25:46;97573.00;;;29.87;17.53
47082;BME280;33066;49.296;14.470;2023-05-08T12:28:11;97573.65;;;29.61;16.07
47082;BME280;33066;49.296;14.470;2023-05-08T12:30:38;97572.33;;;30.04;16.84
47082;BME280;33066;49.296;14.470;2023-05-08T12:33:03;97571.64;;;30.01;16.52
47082;BME280;33066;49.296;14.470;2023-05-08T12:35:29;97576.12;;;29.92;15.98
47082;BME280;33066;49.296;14.470;2023-05-08T12:38:00;97569.21;;;30.24;15.39
47082;BME280;33066;49.296;14.470;2023-05-08T12:40:26;97565.52;;;30.36;15.61
47082;BME280;33066;49.296;14.470;2023-05-08T12:42:47;97565.84;;;30.23;15.80
47082;BME280;33066;49.296;14.470;2023-05-08T12:45:16;97565.02;;;30.19;15.40
47082;BME280;33066;49.296;14.470;2023-05-08T12:47:36;97564.06;;;30.00;16.00
47082;BME280;33066;49.296;14.470;2023-05-08T12:50:02;97559.38;;;30.13;15.34
47082;BME280;33066;49.296;14.470;2023-05-08T12:52:27;97555.31;;;30.09;15.29
47082;BME280;33066;49.296;14.470;2023-05-08T12:54:53;97557.42;;;29.77;14.92
47082;BME280;33066;49.296;14.470;2023-05-08T12:57:19;97556.20;;;29.27;14.96